sensor_id;sensor_type;location;lat;lon;timestamp;pressure;altitude;pressure_sealevel;temperature;humidity
59971;BME280;45825;45.434;9.116;2022-07-29T00:01:45;100167.59;;;25.23;58.52
59971;BME280;45825;45.434;9.116;2022-07-29T00:04:11;100173.84;;;25.24;58.09
59971;BME280;45825;45.434;9.116;2022-07-29T00:06:36;100182.63;;;25.18;57.86
59971;BME280;45825;45.434;9.116;2022-07-29T00:09:02;100185.22;;;25.11;58.16
59971;BME280;45825;45.434;9.116;2022-07-29T00:11:27;100182.28;;;25.21;57.66
59971;BME280;45825;45.434;9.116;2022-07-29T00:13:52;100194.41;;;25.17;58.11
59971;BME280;45825;45.434;9.116;2022-07-29T00:16:18;100198.13;;;25.16;58.70
59971;BME280;45825;45.434;9.116;2022-07-29T00:18:43;100195.16;;;25.10;58.79
59971;BME280;45825;45.434;9.116;2022-07-29T00:21:08;100199.13;;;25.00;58.47
59971;BME280;45825;45.434;9.116;2022-07-29T00:23:34;100200.28;;;24.82;59.42
59971;BME280;45825;45.434;9.116;2022-07-29T00:25:59;100204.16;;;24.79;59.29
59971;BME280;45825;45.434;9.116;2022-07-29T00:28:24;100199.94;;;24.77;60.24
59971;BME280;45825;45.434;9.116;2022-07-29T00:30:49;100190.09;;;24.46;61.79
59971;BME280;45825;45.434;9.116;2022-07-29T00:33:15;100185.53;;;24.23;62.69
59971;BME280;45825;45.434;9.116;2022-07-29T00:35:40;100177.72;;;23.96;63.82
59971;BME280;45825;45.434;9.116;2022-07-29T00:38:08;100191.16;;;23.96;64.38
59971;BME280;45825;45.434;9.116;2022-07-29T00:40:33;100188.50;;;23.88;65.08
59971;BME280;45825;45.434;9.116;2022-07-29T00:42:59;100187.28;;;24.07;63.93
59971;BME280;45825;45.434;9.116;2022-07-29T00:45:24;100171.06;;;24.24;64.36
59971;BME280;45825;45.434;9.116;2022-07-29T00:47:50;100162.22;;;24.38;63.97
59971;BME280;45825;45.434;9.116;2022-07-29T00:50:15;100169.59;;;24.45;63.08
59971;BME280;45825;45.434;9.116;2022-07-29T00:52:42;100163.69;;;24.49;61.65
59971;BME280;45825;45.434;9.116;2022-07-29T00:55:12;100155.84;;;24.63;62.29
59971;BME280;45825;45.434;9.116;2022-07-29T00:57:38;100155.41;;;24.74;61.60
59971;BME280;45825;45.434;9.116;2022-07-29T01:00:05;100154.09;;;24.78;61.25
59971;BME280;45825;45.434;9.116;2022-07-29T01:02:32;100151.00;;;24.81;61.21
59971;BME280;45825;45.434;9.116;2022-07-29T01:04:57;100159.19;;;24.88;60.49
59971;BME280;45825;45.434;9.116;2022-07-29T01:07:25;100161.06;;;24.88;60.47
59971;BME280;45825;45.434;9.116;2022-07-29T01:09:51;100157.69;;;24.86;60.62
59971;BME280;45825;45.434;9.116;2022-07-29T01:12:21;100152.50;;;24.84;61.03
59971;BME280;45825;45.434;9.116;2022-07-29T01:14:48;100156.34;;;24.90;60.51
59971;BME280;45825;45.434;9.116;2022-07-29T01:25:48;100158.06;;;24.82;60.42
59971;BME280;45825;45.434;9.116;2022-07-29T01:28:58;100151.88;;;24.82;60.96
59971;BME280;45825;45.434;9.116;2022-07-29T01:31:31;100155.47;;;24.89;60.97
59971;BME280;45825;45.434;9.116;2022-07-29T01:34:02;100168.75;;;24.91;59.58
59971;BME280;45825;45.434;9.116;2022-07-29T01:39:05;100167.97;;;24.12;62.90
59971;BME280;45825;45.434;9.116;2022-07-29T01:41:32;100161.94;;;24.02;63.40
59971;BME280;45825;45.434;9.116;2022-07-29T01:44:02;100156.81;;;24.23;62.12
59971;BME280;45825;45.434;9.116;2022-07-29T01:46:38;100161.09;;;24.33;61.65
59971;BME280;45825;45.434;9.116;2022-07-29T01:49:28;100162.47;;;24.28;62.06
59971;BME280;45825;45.434;9.116;2022-07-29T01:51:59;100170.53;;;24.28;62.77
59971;BME280;45825;45.434;9.116;2022-07-29T01:54:49;100166.53;;;24.24;63.04
59971;BME280;45825;45.434;9.116;2022-07-29T01:57:16;100172.25;;;24.21;62.64
59971;BME280;45825;45.434;9.116;2022-07-29T01:59:46;100179.16;;;24.16;62.92
59971;BME280;45825;45.434;9.116;2022-07-29T02:02:13;100186.44;;;24.07;63.46
59971;BME280;45825;45.434;9.116;2022-07-29T02:04:40;100182.75;;;23.99;63.47
59971;BME280;45825;45.434;9.116;2022-07-29T02:07:10;100185.50;;;23.91;63.96
59971;BME280;45825;45.434;9.116;2022-07-29T02:09:38;100183.09;;;23.96;64.20
59971;BME280;45825;45.434;9.116;2022-07-29T02:12:05;100184.78;;;23.97;64.66
59971;BME280;45825;45.434;9.116;2022-07-29T02:14:36;100183.47;;;23.93;64.85
59971;BME280;45825;45.434;9.116;2022-07-29T02:17:02;100192.69;;;23.91;65.11
59971;BME280;45825;45.434;9.116;2022-07-29T02:19:29;100183.34;;;23.78;65.85
59971;BME280;45825;45.434;9.116;2022-07-29T02:21:57;100187.94;;;23.69;66.52
59971;BME280;45825;45.434;9.116;2022-07-29T02:26:59;100181.97;;;23.82;65.93
59971;BME280;45825;45.434;9.116;2022-07-29T02:29:28;100170.97;;;23.69;65.95
59971;BME280;45825;45.434;9.116;2022-07-29T02:31:56;100177.38;;;23.51;66.82
59971;BME280;45825;45.434;9.116;2022-07-29T02:34:23;100178.75;;;23.55;67.08
59971;BME280;45825;45.434;9.116;2022-07-29T02:36:50;100181.91;;;23.59;66.54
59971;BME280;45825;45.434;9.116;2022-07-29T02:39:17;100180.25;;;23.58;66.24
59971;BME280;45825;45.434;9.116;2022-07-29T02:44:15;100177.38;;;23.60;65.45
59971;BME280;45825;45.434;9.116;2022-07-29T02:51:53;100171.56;;;23.39;65.27
59971;BME280;45825;45.434;9.116;2022-07-29T02:54:27;100174.25;;;23.39;65.42
59971;BME280;45825;45.434;9.116;2022-07-29T02:57:01;100178.44;;;23.42;65.52
59971;BME280;45825;45.434;9.116;2022-07-29T02:59:30;100170.56;;;23.40;64.79
59971;BME280;45825;45.434;9.116;2022-07-29T03:01:59;100168.38;;;23.44;65.07
59971;BME280;45825;45.434;9.116;2022-07-29T03:04:26;100173.56;;;23.46;64.59
59971;BME280;45825;45.434;9.116;2022-07-29T03:06:53;100172.06;;;23.43;64.67
59971;BME280;45825;45.434;9.116;2022-07-29T03:09:21;100175.91;;;23.49;64.33
59971;BME280;45825;45.434;9.116;2022-07-29T03:11:49;100179.28;;;23.42;64.04
59971;BME280;45825;45.434;9.116;2022-07-29T03:14:15;100191.69;;;23.43;64.28
59971;BME280;45825;45.434;9.116;2022-07-29T03:16:41;100196.72;;;23.47;64.39
59971;BME280;45825;45.434;9.116;2022-07-29T03:19:07;100193.03;;;23.48;64.54
59971;BME280;45825;45.434;9.116;2022-07-29T03:21:33;100188.66;;;23.47;64.75
59971;BME280;45825;45.434;9.116;2022-07-29T03:23:58;100186.81;;;23.39;65.23
59971;BME280;45825;45.434;9.116;2022-07-29T03:26:24;100183.81;;;23.42;65.46
59971;BME280;45825;45.434;9.116;2022-07-29T03:28:50;100180.63;;;23.38;65.48
59971;BME280;45825;45.434;9.116;2022-07-29T03:31:15;100172.44;;;23.32;65.60
59971;BME280;45825;45.434;9.116;2022-07-29T03:33:40;100172.91;;;23.27;65.64
59971;BME280;45825;45.434;9.116;2022-07-29T03:36:06;100175.44;;;23.28;65.87
59971;BME280;45825;45.434;9.116;2022-07-29T03:38:33;100175.28;;;23.30;66.11
59971;BME280;45825;45.434;9.116;2022-07-29T03:41:04;100180.66;;;23.30;65.92
59971;BME280;45825;45.434;9.116;2022-07-29T03:43:32;100168.72;;;23.33;66.32
59971;BME280;45825;45.434;9.116;2022-07-29T03:45:59;100168.03;;;23.39;66.15
59971;BME280;45825;45.434;9.116;2022-07-29T03:48:28;100172.06;;;23.43;66.17
59971;BME280;45825;45.434;9.116;2022-07-29T03:50:55;100171.19;;;23.51;65.50
59971;BME280;45825;45.434;9.116;2022-07-29T03:53:21;100169.19;;;23.53;65.43
59971;BME280;45825;45.434;9.116;2022-07-29T03:55:55;100178.53;;;23.57;65.46
59971;BME280;45825;45.434;9.116;2022-07-29T03:58:23;100180.06;;;23.60;65.58
59971;BME280;45825;45.434;9.116;2022-07-29T04:00:49;100177.38;;;23.60;64.94
59971;BME280;45825;45.434;9.116;2022-07-29T04:03:15;100174.03;;;23.57;65.37
59971;BME280;45825;45.434;9.116;2022-07-29T04:05:40;100163.00;;;23.52;65.58
59971;BME280;45825;45.434;9.116;2022-07-29T04:08:06;100165.84;;;23.42;65.86
59971;BME280;45825;45.434;9.116;2022-07-29T04:10:31;100171.72;;;23.46;66.22
59971;BME280;45825;45.434;9.116;2022-07-29T04:12:57;100180.75;;;23.53;65.93
59971;BME280;45825;45.434;9.116;2022-07-29T04:15:22;100172.19;;;23.58;65.70
59971;BME280;45825;45.434;9.116;2022-07-29T04:17:47;100178.75;;;23.55;65.71
59971;BME280;45825;45.434;9.116;2022-07-29T04:20:13;100174.03;;;23.49;65.31
59971;BME280;45825;45.434;9.116;2022-07-29T04:22:39;100174.72;;;23.51;65.62
59971;BME280;45825;45.434;9.116;2022-07-29T04:25:05;100173.88;;;23.51;65.30
59971;BME280;45825;45.434;9.116;2022-07-29T04:27:30;100184.47;;;23.44;65.51
59971;BME280;45825;45.434;9.116;2022-07-29T04:29:55;100176.94;;;23.39;65.85
59971;BME280;45825;45.434;9.116;2022-07-29T04:32:21;100176.94;;;23.48;65.72
59971;BME280;45825;45.434;9.116;2022-07-29T04:34:46;100174.25;;;23.48;65.85
59971;BME280;45825;45.434;9.116;2022-07-29T04:37:12;100179.41;;;23.49;65.37
59971;BME280;45825;45.434;9.116;2022-07-29T04:39:37;100183.97;;;23.49;66.20
59971;BME280;45825;45.434;9.116;2022-07-29T04:42:03;100186.97;;;23.46;65.95
59971;BME280;45825;45.434;9.116;2022-07-29T04:44:28;100188.66;;;23.47;65.48
59971;BME280;45825;45.434;9.116;2022-07-29T04:46:53;100203.06;;;23.46;65.85
59971;BME280;45825;45.434;9.116;2022-07-29T04:49:19;100199.72;;;23.43;65.85
59971;BME280;45825;45.434;9.116;2022-07-29T04:51:44;100200.94;;;23.41;65.99
59971;BME280;45825;45.434;9.116;2022-07-29T04:54:09;100201.91;;;23.48;65.76
59971;BME280;45825;45.434;9.116;2022-07-29T04:56:35;100206.13;;;23.42;65.76
59971;BME280;45825;45.434;9.116;2022-07-29T04:59:00;100207.63;;;23.45;65.91
59971;BME280;45825;45.434;9.116;2022-07-29T05:01:25;100211.25;;;23.61;65.25
59971;BME280;45825;45.434;9.116;2022-07-29T05:03:50;100210.09;;;23.63;64.76
59971;BME280;45825;45.434;9.116;2022-07-29T05:06:16;100216.59;;;23.77;64.47
59971;BME280;45825;45.434;9.116;2022-07-29T05:08:41;100224.31;;;23.80;64.50
59971;BME280;45825;45.434;9.116;2022-07-29T05:11:06;100219.91;;;23.88;64.03
59971;BME280;45825;45.434;9.116;2022-07-29T05:13:32;100220.44;;;23.83;63.70
59971;BME280;45825;45.434;9.116;2022-07-29T05:15:57;100219.63;;;23.74;64.06
59971;BME280;45825;45.434;9.116;2022-07-29T05:18:25;100221.97;;;23.77;63.96
59971;BME280;45825;45.434;9.116;2022-07-29T05:20:51;100222.78;;;23.86;63.89
59971;BME280;45825;45.434;9.116;2022-07-29T05:23:16;100221.31;;;23.75;64.17
59971;BME280;45825;45.434;9.116;2022-07-29T05:25:42;100225.34;;;23.71;64.34
59971;BME280;45825;45.434;9.116;2022-07-29T05:28:07;100222.28;;;23.82;64.58
59971;BME280;45825;45.434;9.116;2022-07-29T05:30:32;100215.19;;;23.98;64.36
59971;BME280;45825;45.434;9.116;2022-07-29T05:32:58;100218.81;;;24.13;64.02
59971;BME280;45825;45.434;9.116;2022-07-29T05:35:23;100228.69;;;24.21;63.60
59971;BME280;45825;45.434;9.116;2022-07-29T05:37:48;100237.06;;;24.26;63.61
59971;BME280;45825;45.434;9.116;2022-07-29T05:40:14;100241.28;;;24.29;62.93
59971;BME280;45825;45.434;9.116;2022-07-29T05:42:39;100235.22;;;24.27;63.12
59971;BME280;45825;45.434;9.116;2022-07-29T05:45:05;100231.34;;;24.30;63.41
59971;BME280;45825;45.434;9.116;2022-07-29T05:47:30;100240.34;;;24.45;62.23
59971;BME280;45825;45.434;9.116;2022-07-29T05:49:56;100246.75;;;24.44;61.54
59971;BME280;45825;45.434;9.116;2022-07-29T05:52:21;100243.13;;;24.20;61.91
59971;BME280;45825;45.434;9.116;2022-07-29T05:54:47;100247.97;;;24.33;61.79
59971;BME280;45825;45.434;9.116;2022-07-29T05:57:20;100248.28;;;24.62;61.75
59971;BME280;45825;45.434;9.116;2022-07-29T05:59:46;100241.63;;;24.81;61.01
59971;BME280;45825;45.434;9.116;2022-07-29T06:02:11;100242.53;;;24.96;60.58
59971;BME280;45825;45.434;9.116;2022-07-29T06:04:37;100238.47;;;25.01;59.77
59971;BME280;45825;45.434;9.116;2022-07-29T06:07:02;100245.16;;;25.05;60.13
59971;BME280;45825;45.434;9.116;2022-07-29T06:09:28;100239.69;;;25.13;59.86
59971;BME280;45825;45.434;9.116;2022-07-29T06:11:53;100241.13;;;25.24;59.55
59971;BME280;45825;45.434;9.116;2022-07-29T06:14:19;100237.69;;;25.30;59.28
59971;BME280;45825;45.434;9.116;2022-07-29T06:16:44;100236.38;;;25.26;58.65
59971;BME280;45825;45.434;9.116;2022-07-29T06:19:10;100237.03;;;25.28;59.37
59971;BME280;45825;45.434;9.116;2022-07-29T06:21:35;100237.03;;;25.28;57.45
59971;BME280;45825;45.434;9.116;2022-07-29T06:24:01;100245.59;;;25.32;56.71
59971;BME280;45825;45.434;9.116;2022-07-29T06:26:26;100238.81;;;25.36;56.89
59971;BME280;45825;45.434;9.116;2022-07-29T06:28:52;100235.84;;;25.31;56.29
59971;BME280;45825;45.434;9.116;2022-07-29T06:31:17;100247.47;;;25.31;57.32
59971;BME280;45825;45.434;9.116;2022-07-29T06:33:42;100245.53;;;25.40;57.33
59971;BME280;45825;45.434;9.116;2022-07-29T06:36:08;100241.81;;;25.41;55.97
59971;BME280;45825;45.434;9.116;2022-07-29T06:38:33;100245.34;;;25.42;57.43
59971;BME280;45825;45.434;9.116;2022-07-29T06:40:59;100250.66;;;25.50;56.08
59971;BME280;45825;45.434;9.116;2022-07-29T06:43:33;100257.16;;;25.56;56.23
59971;BME280;45825;45.434;9.116;2022-07-29T06:46:01;100248.81;;;25.50;55.40
59971;BME280;45825;45.434;9.116;2022-07-29T06:48:27;100249.59;;;25.36;55.06
59971;BME280;45825;45.434;9.116;2022-07-29T06:50:53;100261.50;;;25.42;55.07
59971;BME280;45825;45.434;9.116;2022-07-29T06:53:19;100261.53;;;25.57;55.16
59971;BME280;45825;45.434;9.116;2022-07-29T06:55:44;100257.78;;;25.43;55.51
59971;BME280;45825;45.434;9.116;2022-07-29T06:58:09;100261.53;;;25.57;55.41
59971;BME280;45825;45.434;9.116;2022-07-29T07:00:36;100257.41;;;25.46;55.01
59971;BME280;45825;45.434;9.116;2022-07-29T07:03:01;100261.25;;;25.51;55.08
59971;BME280;45825;45.434;9.116;2022-07-29T07:05:26;100253.44;;;25.57;55.41
59971;BME280;45825;45.434;9.116;2022-07-29T07:07:52;100244.47;;;25.64;55.66
59971;BME280;45825;45.434;9.116;2022-07-29T07:10:17;100250.66;;;25.50;54.21
59971;BME280;45825;45.434;9.116;2022-07-29T07:12:42;100258.06;;;25.48;54.79
59971;BME280;45825;45.434;9.116;2022-07-29T07:15:08;100249.63;;;25.51;54.20
59971;BME280;45825;45.434;9.116;2022-07-29T07:17:33;100243.72;;;25.71;54.47
59971;BME280;45825;45.434;9.116;2022-07-29T07:19:59;100241.56;;;25.81;54.08
59971;BME280;45825;45.434;9.116;2022-07-29T07:22:24;100244.66;;;25.93;54.12
59971;BME280;45825;45.434;9.116;2022-07-29T07:24:49;100250.75;;;25.57;53.89
59971;BME280;45825;45.434;9.116;2022-07-29T07:27:15;100245.66;;;25.62;53.99
59971;BME280;45825;45.434;9.116;2022-07-29T07:29:40;100239.66;;;25.75;54.40
59971;BME280;45825;45.434;9.116;2022-07-29T07:32:06;100236.91;;;25.90;54.49
59971;BME280;45825;45.434;9.116;2022-07-29T07:34:32;100236.66;;;26.00;55.09
59971;BME280;45825;45.434;9.116;2022-07-29T07:36:57;100233.28;;;26.13;56.16
59971;BME280;45825;45.434;9.116;2022-07-29T07:39:22;100228.72;;;26.13;54.92
59971;BME280;45825;45.434;9.116;2022-07-29T07:41:48;100223.81;;;25.87;55.48
59971;BME280;45825;45.434;9.116;2022-07-29T07:44:13;100229.59;;;25.84;55.89
59971;BME280;45825;45.434;9.116;2022-07-29T07:46:38;100233.56;;;26.03;56.02
59971;BME280;45825;45.434;9.116;2022-07-29T07:49:04;100216.44;;;26.11;55.14
59971;BME280;45825;45.434;9.116;2022-07-29T07:51:29;100220.94;;;26.03;55.78
59971;BME280;45825;45.434;9.116;2022-07-29T07:53:54;100220.47;;;26.15;55.10
59971;BME280;45825;45.434;9.116;2022-07-29T07:56:19;100224.28;;;26.20;54.81
59971;BME280;45825;45.434;9.116;2022-07-29T07:58:45;100225.13;;;25.91;56.54
59971;BME280;45825;45.434;9.116;2022-07-29T08:01:10;100225.56;;;25.94;57.41
59971;BME280;45825;45.434;9.116;2022-07-29T08:03:35;100226.66;;;26.15;56.17
59971;BME280;45825;45.434;9.116;2022-07-29T08:06:02;100217.88;;;26.21;55.88
59971;BME280;45825;45.434;9.116;2022-07-29T08:08:28;100217.97;;;25.98;57.04
59971;BME280;45825;45.434;9.116;2022-07-29T08:10:53;100216.09;;;26.14;57.06
59971;BME280;45825;45.434;9.116;2022-07-29T08:13:24;100211.53;;;26.29;56.10
59971;BME280;45825;45.434;9.116;2022-07-29T08:15:50;100211.38;;;26.01;56.24
59971;BME280;45825;45.434;9.116;2022-07-29T08:18:23;100210.25;;;26.10;56.07
59971;BME280;45825;45.434;9.116;2022-07-29T08:20:49;100216.72;;;26.16;55.95
59971;BME280;45825;45.434;9.116;2022-07-29T08:23:14;100212.72;;;26.27;55.23
59971;BME280;45825;45.434;9.116;2022-07-29T08:25:40;100226.38;;;26.40;55.05
59971;BME280;45825;45.434;9.116;2022-07-29T08:28:06;100228.66;;;26.21;54.75
59971;BME280;45825;45.434;9.116;2022-07-29T08:30:32;100227.59;;;26.38;54.16
59971;BME280;45825;45.434;9.116;2022-07-29T08:32:57;100230.69;;;26.56;53.76
59971;BME280;45825;45.434;9.116;2022-07-29T08:35:23;100242.69;;;26.54;53.72
59971;BME280;45825;45.434;9.116;2022-07-29T08:37:49;100237.28;;;26.90;53.42
59971;BME280;45825;45.434;9.116;2022-07-29T08:40:14;100240.44;;;26.94;53.32
59971;BME280;45825;45.434;9.116;2022-07-29T08:42:40;100232.88;;;27.11;53.98
59971;BME280;45825;45.434;9.116;2022-07-29T08:45:06;100227.63;;;27.31;52.54
59971;BME280;45825;45.434;9.116;2022-07-29T08:47:32;100222.19;;;27.25;53.70
59971;BME280;45825;45.434;9.116;2022-07-29T08:49:58;100225.47;;;27.20;53.81
59971;BME280;45825;45.434;9.116;2022-07-29T08:52:25;100229.69;;;27.29;53.06
59971;BME280;45825;45.434;9.116;2022-07-29T08:54:52;100230.38;;;27.38;53.59
59971;BME280;45825;45.434;9.116;2022-07-29T08:57:18;100219.53;;;27.03;52.66
59971;BME280;45825;45.434;9.116;2022-07-29T08:59:46;100220.28;;;26.97;53.68
59971;BME280;45825;45.434;9.116;2022-07-29T09:02:20;100222.97;;;27.18;53.59
59971;BME280;45825;45.434;9.116;2022-07-29T09:04:46;100219.09;;;27.28;53.93
59971;BME280;45825;45.434;9.116;2022-07-29T09:07:15;100230.88;;;27.48;52.86
59971;BME280;45825;45.434;9.116;2022-07-29T09:09:42;100221.00;;;27.34;52.69
59971;BME280;45825;45.434;9.116;2022-07-29T09:12:08;100215.97;;;26.81;53.58
59971;BME280;45825;45.434;9.116;2022-07-29T09:14:37;100212.06;;;27.33;52.27
59971;BME280;45825;45.434;9.116;2022-07-29T09:17:02;100208.75;;;27.67;51.89
59971;BME280;45825;45.434;9.116;2022-07-29T09:19:33;100202.56;;;27.73;52.03
59971;BME280;45825;45.434;9.116;2022-07-29T09:22:01;100201.84;;;27.93;50.81
59971;BME280;45825;45.434;9.116;2022-07-29T09:27:08;100195.56;;;28.34;49.12
59971;BME280;45825;45.434;9.116;2022-07-29T09:29:35;100197.09;;;28.15;48.66
59971;BME280;45825;45.434;9.116;2022-07-29T09:32:00;100204.31;;;28.50;48.80
59971;BME280;45825;45.434;9.116;2022-07-29T09:34:28;100193.84;;;28.33;48.94
59971;BME280;45825;45.434;9.116;2022-07-29T09:36:56;100197.00;;;28.43;48.76
59971;BME280;45825;45.434;9.116;2022-07-29T09:39:37;100191.38;;;28.38;48.69
59971;BME280;45825;45.434;9.116;2022-07-29T09:42:09;100186.84;;;28.46;48.49
59971;BME280;45825;45.434;9.116;2022-07-29T09:45:01;100172.91;;;28.62;48.19
59971;BME280;45825;45.434;9.116;2022-07-29T09:47:47;100185.19;;;28.98;47.73
59971;BME280;45825;45.434;9.116;2022-07-29T09:50:15;100184.16;;;29.13;47.83
59971;BME280;45825;45.434;9.116;2022-07-29T09:52:51;100177.09;;;29.12;47.09
59971;BME280;45825;45.434;9.116;2022-07-29T09:55:17;100175.34;;;29.65;46.73
59971;BME280;45825;45.434;9.116;2022-07-29T09:57:43;100168.28;;;30.03;46.12
59971;BME280;45825;45.434;9.116;2022-07-29T10:00:12;100172.72;;;29.97;45.42
59971;BME280;45825;45.434;9.116;2022-07-29T10:02:40;100162.81;;;29.71;45.76
59971;BME280;45825;45.434;9.116;2022-07-29T10:05:16;100169.38;;;28.75;47.41
59971;BME280;45825;45.434;9.116;2022-07-29T10:07:53;100168.28;;;28.29;48.89
59971;BME280;45825;45.434;9.116;2022-07-29T10:10:20;100165.63;;;28.96;48.04
59971;BME280;45825;45.434;9.116;2022-07-29T10:12:59;100160.78;;;29.39;46.92
59971;BME280;45825;45.434;9.116;2022-07-29T10:15:30;100159.66;;;29.74;45.49
59971;BME280;45825;45.434;9.116;2022-07-29T10:17:58;100159.84;;;29.79;43.75
59971;BME280;45825;45.434;9.116;2022-07-29T10:20:25;100157.94;;;29.86;44.69
59971;BME280;45825;45.434;9.116;2022-07-29T10:22:52;100162.66;;;30.04;43.92
59971;BME280;45825;45.434;9.116;2022-07-29T10:25:18;100164.16;;;29.93;44.06
59971;BME280;45825;45.434;9.116;2022-07-29T10:27:45;100170.66;;;29.06;46.42
59971;BME280;45825;45.434;9.116;2022-07-29T10:30:12;100159.28;;;29.63;46.07
59971;BME280;45825;45.434;9.116;2022-07-29T10:33:17;100154.50;;;30.43;44.75
59971;BME280;45825;45.434;9.116;2022-07-29T10:44:01;100139.50;;;31.73;41.59
59971;BME280;45825;45.434;9.116;2022-07-29T10:46:28;100138.53;;;32.71;40.11
59971;BME280;45825;45.434;9.116;2022-07-29T10:51:57;100131.75;;;33.57;38.52
59971;BME280;45825;45.434;9.116;2022-07-29T10:59:42;100117.44;;;32.90;38.96
59971;BME280;45825;45.434;9.116;2022-07-29T11:05:08;100118.06;;;33.69;37.65
59971;BME280;45825;45.434;9.116;2022-07-29T11:07:35;100111.00;;;34.14;37.42
59971;BME280;45825;45.434;9.116;2022-07-29T11:15:07;100107.47;;;31.75;42.09
59971;BME280;45825;45.434;9.116;2022-07-29T11:23:01;100104.41;;;33.28;39.52
59971;BME280;45825;45.434;9.116;2022-07-29T11:25:27;100094.50;;;34.55;37.66
59971;BME280;45825;45.434;9.116;2022-07-29T11:27:54;100096.00;;;35.47;35.89
59971;BME280;45825;45.434;9.116;2022-07-29T11:30:52;100080.69;;;35.96;34.86
59971;BME280;45825;45.434;9.116;2022-07-29T11:33:32;100081.94;;;36.48;34.58
59971;BME280;45825;45.434;9.116;2022-07-29T11:38:37;100078.38;;;34.53;36.28
59971;BME280;45825;45.434;9.116;2022-07-29T11:41:25;100077.09;;;33.52;38.79
59971;BME280;45825;45.434;9.116;2022-07-29T11:43:55;100076.28;;;33.39;38.65
59971;BME280;45825;45.434;9.116;2022-07-29T11:46:42;100081.31;;;33.19;38.69
59971;BME280;45825;45.434;9.116;2022-07-29T11:49:08;100088.81;;;33.11;39.10
59971;BME280;45825;45.434;9.116;2022-07-29T11:51:35;100083.41;;;32.21;41.44
59971;BME280;45825;45.434;9.116;2022-07-29T11:54:02;100081.47;;;32.10;41.80
59971;BME280;45825;45.434;9.116;2022-07-29T11:56:31;100083.34;;;32.64;41.16
59971;BME280;45825;45.434;9.116;2022-07-29T11:59:07;100084.72;;;33.79;38.84
59971;BME280;45825;45.434;9.116;2022-07-29T12:01:52;100079.56;;;34.11;39.02
59971;BME280;45825;45.434;9.116;2022-07-29T12:04:17;100081.59;;;32.93;39.56
59971;BME280;45825;45.434;9.116;2022-07-29T12:06:42;100077.53;;;33.20;39.04
59971;BME280;45825;45.434;9.116;2022-07-29T12:09:08;100076.13;;;33.58;39.14
59971;BME280;45825;45.434;9.116;2022-07-29T12:11:33;100073.63;;;33.68;38.42
59971;BME280;45825;45.434;9.116;2022-07-29T12:13:59;100062.06;;;33.95;38.57
59971;BME280;45825;45.434;9.116;2022-07-29T12:16:34;100067.59;;;34.64;36.99
59971;BME280;45825;45.434;9.116;2022-07-29T12:19:01;100068.06;;;34.78;37.37
59971;BME280;45825;45.434;9.116;2022-07-29T12:21:49;100063.97;;;35.42;36.31
59971;BME280;45825;45.434;9.116;2022-07-29T12:24:15;100061.13;;;34.02;37.77
59971;BME280;45825;45.434;9.116;2022-07-29T12:26:58;100061.88;;;34.14;37.57
59971;BME280;45825;45.434;9.116;2022-07-29T12:29:25;100056.38;;;32.50;40.74
59971;BME280;45825;45.434;9.116;2022-07-29T12:31:53;100063.09;;;33.07;40.24
59971;BME280;45825;45.434;9.116;2022-07-29T12:34:23;100055.06;;;33.53;39.18
59971;BME280;45825;45.434;9.116;2022-07-29T12:36:49;100057.66;;;34.23;38.53
59971;BME280;45825;45.434;9.116;2022-07-29T12:39:18;100053.53;;;33.75;38.60
59971;BME280;45825;45.434;9.116;2022-07-29T12:41:44;100051.97;;;33.79;39.79
59971;BME280;45825;45.434;9.116;2022-07-29T12:44:10;100046.53;;;33.96;37.91
59971;BME280;45825;45.434;9.116;2022-07-29T12:46:35;100048.00;;;34.33;38.13
59971;BME280;45825;45.434;9.116;2022-07-29T12:49:01;100041.03;;;33.21;39.54
59971;BME280;45825;45.434;9.116;2022-07-29T12:51:35;100033.25;;;33.41;38.96
59971;BME280;45825;45.434;9.116;2022-07-29T12:54:12;100028.31;;;32.73;40.00
59971;BME280;45825;45.434;9.116;2022-07-29T12:56:39;100022.13;;;32.90;40.61
59971;BME280;45825;45.434;9.116;2022-07-29T12:59:15;100008.31;;;34.25;38.29
59971;BME280;45825;45.434;9.116;2022-07-29T13:01:41;99999.81;;;34.61;37.47
59971;BME280;45825;45.434;9.116;2022-07-29T13:04:07;100001.41;;;33.30;39.53
59971;BME280;45825;45.434;9.116;2022-07-29T13:06:44;100000.75;;;33.52;39.70
59971;BME280;45825;45.434;9.116;2022-07-29T13:11:45;99986.63;;;34.01;38.66
59971;BME280;45825;45.434;9.116;2022-07-29T13:14:14;99998.25;;;33.79;38.55
59971;BME280;45825;45.434;9.116;2022-07-29T13:17:02;99994.91;;;34.06;38.65
59971;BME280;45825;45.434;9.116;2022-07-29T13:22:09;99979.00;;;34.54;37.79
59971;BME280;45825;45.434;9.116;2022-07-29T13:24:51;99973.78;;;34.97;36.84
59971;BME280;45825;45.434;9.116;2022-07-29T13:27:18;99976.41;;;35.09;36.79
59971;BME280;45825;45.434;9.116;2022-07-29T13:29:44;99978.75;;;35.23;36.31
59971;BME280;45825;45.434;9.116;2022-07-29T13:32:10;99981.81;;;34.82;36.61
59971;BME280;45825;45.434;9.116;2022-07-29T13:34:36;99989.81;;;34.89;36.33
59971;BME280;45825;45.434;9.116;2022-07-29T13:37:02;99980.28;;;34.91;36.53
59971;BME280;45825;45.434;9.116;2022-07-29T13:39:27;99977.72;;;35.29;36.66
59971;BME280;45825;45.434;9.116;2022-07-29T13:41:52;99972.09;;;34.91;35.96
59971;BME280;45825;45.434;9.116;2022-07-29T13:44:18;99980.94;;;34.03;37.24
59971;BME280;45825;45.434;9.116;2022-07-29T13:46:43;99974.94;;;33.89;37.67
59971;BME280;45825;45.434;9.116;2022-07-29T13:49:08;99967.66;;;33.60;38.42
59971;BME280;45825;45.434;9.116;2022-07-29T13:51:34;99958.31;;;33.56;39.56
59971;BME280;45825;45.434;9.116;2022-07-29T13:53:59;99944.94;;;33.89;37.97
59971;BME280;45825;45.434;9.116;2022-07-29T13:56:24;99946.53;;;33.84;37.45